LNVGF ENBR-ENHD
Flight info
| Callsign | LNVGF |
|---|---|
| Flight time | 0h 25m |
| Altitude | 11000 |
| Route | FLS DCT STD DCT KRM |
| Aircraft | B60T/L-SDFY/C |
Departure
| Time | 2026-05-06 17:13 |
|---|---|
| Airport | Bergen Airport, Flesland (ENBR) |
Arrival
| Time | 2026-05-06 17:38 |
|---|---|
| Airport | Haugesund Airport, Karmøy (ENHD) |
| Time | Latitude | Longitude | Altitude | Speed | Heading |
|---|---|---|---|---|---|
| 2026-05-06 16:57 | 60.29974 | 5.22648 | 142 ft | 0 kts | 120° |
| 2026-05-06 17:09 | 60.29969 | 5.22662 | 142 ft | 8 kts | 126° |
| 2026-05-06 17:09 | 60.29879 | 5.22657 | 138 ft | 19 kts | 198° |
| 2026-05-06 17:10 | 60.29782 | 5.22515 | 142 ft | 13 kts | 232° |
| 2026-05-06 17:10 | 60.29750 | 5.22331 | 142 ft | 15 kts | 261° |
| 2026-05-06 17:10 | 60.29734 | 5.22120 | 143 ft | 12 kts | 262° |
| 2026-05-06 17:10 | 60.29731 | 5.22071 | 142 ft | 7 kts | 263° |
| 2026-05-06 17:11 | 60.29723 | 5.21936 | 143 ft | 6 kts | 262° |
| 2026-05-06 17:11 | 60.29719 | 5.21885 | 143 ft | 0 kts | 262° |
| 2026-05-06 17:11 | 60.29710 | 5.21758 | 140 ft | 13 kts | 262° |
| 2026-05-06 17:12 | 60.29693 | 5.21699 | 140 ft | 0 kts | 167° |
| 2026-05-06 17:12 | 60.29691 | 5.21699 | 140 ft | 4 kts | 168° |
| 2026-05-06 17:12 | 60.29369 | 5.21806 | 158 ft | 91 kts | 170° |
| 2026-05-06 17:12 | 60.28600 | 5.22019 | 461 ft | 131 kts | 174° |
| 2026-05-06 17:13 | 60.27600 | 5.22262 | 1039 ft | 153 kts | 174° |
| 2026-05-06 17:13 | 60.26524 | 5.22618 | 1732 ft | 162 kts | 173° |
| 2026-05-06 17:13 | 60.25414 | 5.23041 | 2496 ft | 163 kts | 173° |
| 2026-05-06 17:13 | 60.24294 | 5.23486 | 3245 ft | 165 kts | 172° |
| 2026-05-06 17:14 | 60.23166 | 5.23931 | 3978 ft | 166 kts | 172° |
| 2026-05-06 17:14 | 60.22027 | 5.24379 | 4738 ft | 166 kts | 172° |
| 2026-05-06 17:14 | 60.20914 | 5.24819 | 5621 ft | 161 kts | 172° |
| 2026-05-06 17:14 | 60.19823 | 5.25256 | 6488 ft | 159 kts | 172° |
| 2026-05-06 17:15 | 60.18739 | 5.25699 | 7302 ft | 159 kts | 172° |
| 2026-05-06 17:15 | 60.17645 | 5.26150 | 8128 ft | 162 kts | 172° |
| 2026-05-06 17:15 | 60.16539 | 5.26610 | 8986 ft | 163 kts | 172° |
| 2026-05-06 17:15 | 60.15426 | 5.27078 | 9860 ft | 163 kts | 172° |
| 2026-05-06 17:16 | 60.14268 | 5.27564 | 10448 ft | 179 kts | 172° |
| 2026-05-06 17:16 | 60.12965 | 5.28102 | 10749 ft | 203 kts | 172° |
| 2026-05-06 17:16 | 60.11507 | 5.28665 | 10879 ft | 222 kts | 174° |
| 2026-05-06 17:16 | 60.09961 | 5.28957 | 10933 ft | 224 kts | 181° |
| 2026-05-06 17:17 | 60.08926 | 5.29096 | 10951 ft | 226 kts | 179° |
| 2026-05-06 17:17 | 60.07356 | 5.29404 | 10963 ft | 227 kts | 178° |
| 2026-05-06 17:17 | 60.05781 | 5.29696 | 10965 ft | 228 kts | 180° |
| 2026-05-06 17:17 | 60.04194 | 5.29956 | 10974 ft | 229 kts | 181° |
| 2026-05-06 17:18 | 60.02603 | 5.30236 | 10976 ft | 230 kts | 180° |
| 2026-05-06 17:18 | 60.01004 | 5.30527 | 10979 ft | 230 kts | 180° |
| 2026-05-06 17:18 | 59.99406 | 5.30804 | 10982 ft | 231 kts | 181° |
| 2026-05-06 17:18 | 59.97804 | 5.31084 | 10985 ft | 231 kts | 180° |
| 2026-05-06 17:19 | 59.96201 | 5.31368 | 10991 ft | 231 kts | 180° |
| 2026-05-06 17:19 | 59.94598 | 5.31648 | 10984 ft | 231 kts | 180° |
| 2026-05-06 17:19 | 59.92995 | 5.31930 | 10987 ft | 231 kts | 180° |
| 2026-05-06 17:19 | 59.91395 | 5.32210 | 10992 ft | 231 kts | 180° |
| 2026-05-06 17:20 | 59.89788 | 5.32491 | 10989 ft | 232 kts | 180° |
| 2026-05-06 17:20 | 59.88186 | 5.32774 | 10987 ft | 232 kts | 180° |
| 2026-05-06 17:20 | 59.86580 | 5.33063 | 10987 ft | 232 kts | 180° |
| 2026-05-06 17:20 | 59.84977 | 5.33348 | 10987 ft | 231 kts | 180° |
| 2026-05-06 17:21 | 59.83392 | 5.33628 | 10989 ft | 231 kts | 180° |
| 2026-05-06 17:21 | 59.81786 | 5.33912 | 10989 ft | 231 kts | 180° |
| 2026-05-06 17:21 | 59.80182 | 5.34192 | 10990 ft | 231 kts | 180° |
| 2026-05-06 17:21 | 59.78579 | 5.34448 | 10987 ft | 229 kts | 185° |
| 2026-05-06 17:22 | 59.77035 | 5.33969 | 10975 ft | 223 kts | 199° |
| 2026-05-06 17:22 | 59.75525 | 5.33226 | 10977 ft | 223 kts | 201° |
| 2026-05-06 17:22 | 59.74016 | 5.32467 | 10984 ft | 225 kts | 198° |
| 2026-05-06 17:22 | 59.72461 | 5.31991 | 11010 ft | 227 kts | 193° |
| 2026-05-06 17:23 | 59.70896 | 5.31584 | 11022 ft | 226 kts | 195° |
| 2026-05-06 17:23 | 59.69346 | 5.31052 | 11033 ft | 226 kts | 196° |
| 2026-05-06 17:23 | 59.67794 | 5.30558 | 11038 ft | 227 kts | 195° |
| 2026-05-06 17:23 | 59.66232 | 5.30078 | 11040 ft | 227 kts | 195° |
| 2026-05-06 17:24 | 59.64692 | 5.29589 | 10972 ft | 220 kts | 195° |
| 2026-05-06 17:24 | 59.63183 | 5.29104 | 10739 ft | 220 kts | 195° |
| 2026-05-06 17:24 | 59.61678 | 5.28626 | 10454 ft | 222 kts | 195° |
| 2026-05-06 17:24 | 59.60147 | 5.28150 | 10162 ft | 224 kts | 194° |
| 2026-05-06 17:25 | 59.58606 | 5.27666 | 9868 ft | 224 kts | 194° |
| 2026-05-06 17:25 | 59.57064 | 5.27181 | 9553 ft | 224 kts | 194° |
| 2026-05-06 17:25 | 59.55521 | 5.26698 | 9242 ft | 224 kts | 194° |
| 2026-05-06 17:25 | 59.53987 | 5.26214 | 8945 ft | 223 kts | 193° |
| 2026-05-06 17:26 | 59.52459 | 5.25737 | 8643 ft | 222 kts | 193° |
| 2026-05-06 17:26 | 59.50936 | 5.25258 | 8341 ft | 221 kts | 193° |
| 2026-05-06 17:26 | 59.49418 | 5.24786 | 8040 ft | 220 kts | 193° |
| 2026-05-06 17:26 | 59.47909 | 5.24306 | 7751 ft | 219 kts | 192° |
| 2026-05-06 17:27 | 59.46402 | 5.23844 | 7473 ft | 219 kts | 192° |
| 2026-05-06 17:27 | 59.44903 | 5.23373 | 7201 ft | 218 kts | 192° |
| 2026-05-06 17:27 | 59.43403 | 5.22907 | 6927 ft | 218 kts | 192° |
| 2026-05-06 17:27 | 59.41911 | 5.22439 | 6658 ft | 217 kts | 192° |
| 2026-05-06 17:28 | 59.40419 | 5.21974 | 6386 ft | 217 kts | 192° |
| 2026-05-06 17:28 | 59.38929 | 5.21506 | 6099 ft | 217 kts | 192° |
| 2026-05-06 17:28 | 59.37449 | 5.21036 | 5795 ft | 214 kts | 192° |
| 2026-05-06 17:28 | 59.35990 | 5.20575 | 5490 ft | 211 kts | 192° |
| 2026-05-06 17:29 | 59.34531 | 5.20312 | 5120 ft | 212 kts | 174° |
| 2026-05-06 17:29 | 59.33190 | 5.21395 | 4794 ft | 208 kts | 144° |
| 2026-05-06 17:29 | 59.32024 | 5.23048 | 4480 ft | 206 kts | 145° |
| 2026-05-06 17:29 | 59.30771 | 5.24386 | 4165 ft | 205 kts | 153° |
| 2026-05-06 17:30 | 59.29521 | 5.25705 | 3871 ft | 204 kts | 149° |
| 2026-05-06 17:30 | 59.28295 | 5.27087 | 3582 ft | 203 kts | 150° |
| 2026-05-06 17:30 | 59.27055 | 5.28422 | 3305 ft | 203 kts | 151° |
| 2026-05-06 17:30 | 59.25817 | 5.29746 | 3010 ft | 203 kts | 151° |
| 2026-05-06 17:31 | 59.24586 | 5.31083 | 2743 ft | 201 kts | 151° |
| 2026-05-06 17:31 | 59.23361 | 5.32408 | 2601 ft | 202 kts | 151° |
| 2026-05-06 17:31 | 59.22141 | 5.33718 | 2538 ft | 199 kts | 151° |
| 2026-05-06 17:31 | 59.20934 | 5.35021 | 2511 ft | 197 kts | 151° |
| 2026-05-06 17:32 | 59.19741 | 5.36301 | 2499 ft | 195 kts | 150° |
| 2026-05-06 17:32 | 59.18723 | 5.37913 | 2494 ft | 191 kts | 120° |
| 2026-05-06 17:32 | 59.18426 | 5.40334 | 2494 ft | 183 kts | 77° |
| 2026-05-06 17:32 | 59.19002 | 5.42388 | 2495 ft | 171 kts | 34° |
| 2026-05-06 17:33 | 59.20091 | 5.42979 | 2495 ft | 164 kts | 353° |
| 2026-05-06 17:33 | 59.21216 | 5.42572 | 2479 ft | 164 kts | 346° |
| 2026-05-06 17:33 | 59.22321 | 5.42063 | 2461 ft | 162 kts | 345° |
| 2026-05-06 17:33 | 59.23422 | 5.41514 | 2496 ft | 164 kts | 343° |
| 2026-05-06 17:34 | 59.24530 | 5.40934 | 2499 ft | 165 kts | 343° |
| 2026-05-06 17:34 | 59.25604 | 5.40216 | 2490 ft | 163 kts | 328° |
| 2026-05-06 17:34 | 59.26447 | 5.38755 | 2485 ft | 162 kts | 313° |
| 2026-05-06 17:34 | 59.27177 | 5.37071 | 2482 ft | 162 kts | 311° |
| 2026-05-06 17:35 | 59.27846 | 5.35373 | 2189 ft | 156 kts | 308° |
| 2026-05-06 17:35 | 59.28457 | 5.33637 | 1812 ft | 149 kts | 306° |
| 2026-05-06 17:35 | 59.29025 | 5.32059 | 1582 ft | 138 kts | 308° |
| 2026-05-06 17:36 | 59.30280 | 5.29275 | 1226 ft | 134 kts | 315° |
| 2026-05-06 17:36 | 59.30932 | 5.28016 | 1003 ft | 127 kts | 316° |
| 2026-05-06 17:36 | 59.31545 | 5.26809 | 793 ft | 123 kts | 315° |
| 2026-05-06 17:36 | 59.32139 | 5.25648 | 625 ft | 114 kts | 314° |
| 2026-05-06 17:37 | 59.32659 | 5.24595 | 455 ft | 100 kts | 314° |
| 2026-05-06 17:37 | 59.33126 | 5.23660 | 310 ft | 93 kts | 312° |
| 2026-05-06 17:37 | 59.33572 | 5.22766 | 186 ft | 91 kts | 313° |
| 2026-05-06 17:37 | 59.33989 | 5.21935 | 89 ft | 75 kts | 312° |
| 2026-05-06 17:38 | 59.34264 | 5.21383 | 83 ft | 25 kts | 316° |
| 2026-05-06 17:38 | 59.34334 | 5.21293 | 81 ft | 13 kts | 17° |
| 2026-05-06 17:38 | 59.34394 | 5.21396 | 81 ft | 10 kts | 45° |
| 2026-05-06 17:38 | 59.34463 | 5.21414 | 75 ft | 12 kts | 349° |
| 2026-05-06 17:39 | 59.34500 | 5.21368 | 78 ft | 0 kts | 316° |